Time;durP1;ratioP1;P1;durP2;ratioP2;P2;SDS_P1;SDS_P2;PMS_P1;PMS_P2;Temp;Humidity;BMP_temperature;BMP_pressure;BME280_temperature;BME280_humidity;BME280_pressure;Samples;Min_cycle;Max_cycle;Signal;HPM_P1;HPM_P2
2022/05/10 00:00:11;;;;;;;5.87;2.60;;;12.50;65.40;;;;;;5084376;28;20852;-79
2022/05/10 00:02:42;;;;;;;5.30;2.70;;;12.40;66.10;;;;;;5079462;28;20223;-80
2022/05/10 00:05:11;;;;;;;7.80;3.10;;;12.40;65.90;;;;;;5081275;28;20219;-78
2022/05/10 00:07:39;;;;;;;5.50;2.90;;;12.40;66.00;;;;;;5077678;28;20235;-79
2022/05/10 00:10:08;;;;;;;6.27;2.83;;;12.30;65.90;;;;;;5082377;28;20222;-79
2022/05/10 00:12:35;;;;;;;4.53;2.63;;;12.30;66.30;;;;;;5080896;28;20322;-79
2022/05/10 00:15:02;;;;;;;7.17;2.90;;;12.30;66.90;;;;;;5086130;28;20219;-78
2022/05/10 00:17:35;;;;;;;6.90;2.30;;;12.20;67.40;;;;;;5078789;28;20273;-77
2022/05/10 00:20:02;;;;;;;4.40;2.50;;;12.20;67.40;;;;;;5071991;28;20298;-78
2022/05/10 00:22:30;;;;;;;6.17;2.50;;;12.20;67.00;;;;;;5076705;28;20259;-78
2022/05/10 00:24:57;;;;;;;8.17;2.50;;;12.10;67.40;;;;;;5081310;28;20211;-78
2022/05/10 00:27:24;;;;;;;4.57;2.60;;;12.10;67.40;;;;;;5077953;28;21074;-77
2022/05/10 00:29:51;;;;;;;6.40;2.80;;;12.10;67.50;;;;;;5082762;28;20222;-78
2022/05/10 00:32:18;;;;;;;5.37;2.53;;;12.10;67.80;;;;;;5078973;28;20215;-78
2022/05/10 00:34:44;;;;;;;7.87;3.17;;;12.10;68.10;;;;;;5082837;28;20235;-78
2022/05/10 00:37:13;;;;;;;4.80;3.07;;;12.00;68.00;;;;;;5072120;28;20296;-78
2022/05/10 00:39:41;;;;;;;6.30;2.80;;;12.00;68.30;;;;;;5081275;28;20222;-78
2022/05/10 00:42:15;;;;;;;8.57;3.20;;;12.00;68.20;;;;;;5076552;28;20234;-77
2022/05/10 00:44:49;;;;;;;6.13;2.90;;;12.00;68.70;;;;;;5078865;28;20226;-79
2022/05/10 00:47:23;;;;;;;6.23;2.50;;;11.90;68.50;;;;;;5078357;28;20271;-78
2022/05/10 00:49:57;;;;;;;5.17;2.67;;;11.90;68.90;;;;;;5080423;28;20237;-78
2022/05/10 00:52:30;;;;;;;6.43;2.60;;;11.90;69.20;;;;;;5073676;28;20215;-78
2022/05/10 00:55:05;;;;;;;4.90;2.60;;;11.90;69.40;;;;;;5080432;28;20222;-78
2022/05/10 00:57:37;;;;;;;5.33;2.60;;;11.80;69.90;;;;;;5082240;28;20218;-78
2022/05/10 01:00:08;;;;;;;4.83;2.60;;;11.80;69.90;;;;;;5072094;28;20247;-78
2022/05/10 01:02:53;;;;;;;5.60;3.10;;;11.80;70.50;;;;;;5079698;28;20229;-78
2022/05/10 01:05:27;;;;;;;4.97;2.67;;;11.70;71.20;;;;;;5079727;28;20235;-77
2022/05/10 01:07:59;;;;;;;5.47;2.87;;;11.70;70.70;;;;;;5075838;28;20723;-78
2022/05/10 01:10:39;;;;;;;9.77;3.07;;;11.70;71.00;;;;;;5072486;28;20246;-79
2022/05/10 01:13:13;;;;;;;6.77;2.93;;;11.60;71.50;;;;;;5085646;28;20206;-78
2022/05/10 01:15:45;;;;;;;7.30;2.80;;;11.60;71.40;;;;;;5074961;28;20248;-78
2022/05/10 01:18:12;;;;;;;5.63;3.10;;;11.60;71.20;;;;;;5082389;28;20228;-78
2022/05/10 01:20:42;;;;;;;4.77;2.40;;;11.50;70.90;;;;;;5087287;28;20231;-77
2022/05/10 01:23:37;;;;;;;4.87;2.80;;;11.50;71.30;;;;;;5085169;28;20233;-78
2022/05/10 01:26:10;;;;;;;5.13;2.50;;;11.50;71.70;;;;;;5083933;28;20554;-78
2022/05/10 01:28:43;;;;;;;5.73;2.90;;;11.50;72.00;;;;;;5097897;28;20232;-78
2022/05/10 01:31:31;;;;;;;6.00;2.93;;;11.50;72.30;;;;;;5083970;28;20600;-79
2022/05/10 01:34:05;;;;;;;6.37;2.67;;;11.40;72.10;;;;;;5080996;28;20294;-78
2022/05/10 01:36:41;;;;;;;7.47;2.70;;;11.40;72.30;;;;;;5081583;28;20215;-79
2022/05/10 01:39:13;;;;;;;6.50;2.70;;;11.40;72.60;;;;;;5082041;28;20230;-77
2022/05/10 01:41:48;;;;;;;6.97;2.83;;;11.40;72.80;;;;;;5087132;28;20492;-79
2022/05/10 01:44:22;;;;;;;6.90;2.90;;;11.30;73.10;;;;;;5079947;28;20287;-78
2022/05/10 01:46:52;;;;;;;4.67;3.00;;;11.30;73.30;;;;;;5080346;28;20214;-79
2022/05/10 01:49:27;;;;;;;5.97;2.80;;;11.30;72.90;;;;;;5079067;28;20664;-78
2022/05/10 01:52:00;;;;;;;9.97;3.67;;;11.30;73.50;;;;;;5087807;28;20229;-79
2022/05/10 01:55:02;;;;;;;5.30;2.67;;;11.30;73.50;;;;;;5081559;28;20232;-77
2022/05/10 01:57:32;;;;;;;5.50;3.03;;;11.30;74.50;;;;;;5081695;28;20228;-78
2022/05/10 02:00:08;;;;;;;6.00;2.93;;;11.30;73.20;;;;;;5083593;28;20265;-78
2022/05/10 02:02:50;;;;;;;6.00;2.97;;;11.30;74.10;;;;;;5084508;28;20317;-78
2022/05/10 02:05:26;;;;;;;6.87;2.83;;;11.30;74.10;;;;;;5082107;28;20222;-79
2022/05/10 02:07:56;;;;;;;5.43;2.90;;;11.30;74.20;;;;;;5083923;28;20218;-78
2022/05/10 02:10:28;;;;;;;6.07;3.17;;;11.30;74.30;;;;;;5081513;28;20217;-79
2022/05/10 02:13:01;;;;;;;6.27;3.00;;;11.30;74.60;;;;;;5081884;28;20223;-79
2022/05/10 02:15:36;;;;;;;4.50;2.83;;;11.30;74.90;;;;;;5084955;28;20232;-79
2022/05/10 02:18:12;;;;;;;4.87;2.93;;;11.30;74.70;;;;;;5086341;28;20221;-79
2022/05/10 02:20:45;;;;;;;6.47;3.27;;;11.30;74.80;;;;;;5083897;28;20239;-79
2022/05/10 02:23:15;;;;;;;5.47;3.23;;;11.30;75.10;;;;;;5081280;28;20215;-79
2022/05/10 02:25:59;;;;;;;6.40;3.37;;;11.30;75.00;;;;;;5081536;28;20224;-77
2022/05/10 02:28:35;;;;;;;5.67;2.87;;;11.30;75.10;;;;;;5080037;28;20222;-78
2022/05/10 02:31:08;;;;;;;6.47;3.17;;;11.30;75.20;;;;;;5081552;28;20339;-78
2022/05/10 02:33:34;;;;;;;5.80;2.80;;;11.20;75.30;;;;;;5082827;28;20251;-78
2022/05/10 02:36:01;;;;;;;4.50;2.80;;;11.20;75.30;;;;;;5085459;28;20254;-79
2022/05/10 02:38:36;;;;;;;6.13;3.00;;;11.30;75.60;;;;;;5079245;28;20244;-78
2022/05/10 02:41:06;;;;;;;5.93;2.93;;;11.20;75.80;;;;;;5081454;28;20228;-79
2022/05/10 02:43:39;;;;;;;5.90;3.03;;;11.20;75.90;;;;;;5082906;28;20290;-78
2022/05/10 02:46:07;;;;;;;7.87;3.00;;;11.20;76.20;;;;;;5082185;28;20236;-78
2022/05/10 02:48:37;;;;;;;6.87;3.13;;;11.20;76.40;;;;;;5084615;28;20226;-78
2022/05/10 02:51:05;;;;;;;6.30;2.97;;;11.20;76.50;;;;;;5071706;28;20215;-78
2022/05/10 02:53:32;;;;;;;6.63;3.30;;;11.10;76.50;;;;;;5084867;28;20222;-78
2022/05/10 02:56:02;;;;;;;6.83;3.70;;;11.10;76.50;;;;;;5078623;28;20249;-78
2022/05/10 02:58:34;;;;;;;6.83;3.33;;;11.10;77.20;;;;;;5076819;28;20233;-78
2022/05/10 03:01:09;;;;;;;5.73;3.23;;;11.10;77.50;;;;;;5079389;28;20920;-78
2022/05/10 03:03:36;;;;;;;6.97;3.57;;;11.10;77.80;;;;;;5075483;28;20226;-78
2022/05/10 03:06:03;;;;;;;5.93;3.27;;;11.10;77.50;;;;;;5078485;28;20215;-79
2022/05/10 03:08:30;;;;;;;8.63;3.77;;;11.10;77.80;;;;;;5082489;28;20228;-79
2022/05/10 03:10:58;;;;;;;6.67;3.53;;;11.10;77.90;;;;;;5085649;28;20791;-78
2022/05/10 03:13:25;;;;;;;7.93;3.60;;;11.10;78.30;;;;;;5076584;28;20227;-78
2022/05/10 03:15:51;;;;;;;5.63;3.10;;;11.10;78.70;;;;;;5072125;28;20719;-77
2022/05/10 03:18:19;;;;;;;6.50;3.60;;;11.00;78.80;;;;;;5078268;28;20231;-78
2022/05/10 03:20:46;;;;;;;6.43;3.47;;;11.10;78.90;;;;;;5078885;28;20245;-78
2022/05/10 03:23:13;;;;;;;5.10;3.30;;;11.10;78.90;;;;;;5082887;28;20218;-78
2022/05/10 03:25:39;;;;;;;7.07;3.47;;;11.10;79.20;;;;;;5079369;28;20758;-78
2022/05/10 03:28:06;;;;;;;7.27;3.50;;;11.10;79.60;;;;;;5078522;28;20222;-78
2022/05/10 03:30:33;;;;;;;5.63;3.30;;;11.10;79.80;;;;;;5082963;28;20567;-77
2022/05/10 03:33:00;;;;;;;6.57;3.20;;;11.00;80.20;;;;;;5085691;28;20238;-77
2022/05/10 03:35:29;;;;;;;7.57;3.53;;;11.00;80.30;;;;;;5084724;28;20225;-78
2022/05/10 03:37:56;;;;;;;5.37;3.37;;;11.00;80.50;;;;;;5084029;28;20322;-78
2022/05/10 03:40:22;;;;;;;5.40;3.20;;;11.00;80.20;;;;;;5083926;28;20253;-78
2022/05/10 03:42:51;;;;;;;6.80;4.00;;;11.00;80.80;;;;;;5080352;28;20283;-78
2022/05/10 03:45:19;;;;;;;7.30;3.77;;;11.00;81.70;;;;;;5083355;28;20245;-78
2022/05/10 03:47:47;;;;;;;4.67;3.27;;;11.00;82.00;;;;;;5096166;28;20233;-78
2022/05/10 03:50:15;;;;;;;5.33;3.10;;;11.00;82.30;;;;;;5083450;28;20592;-79
2022/05/10 03:52:43;;;;;;;7.63;3.33;;;11.00;82.30;;;;;;5084256;28;20215;-79
2022/05/10 03:55:14;;;;;;;5.70;3.47;;;11.00;82.70;;;;;;5084047;28;20240;-77
2022/05/10 03:57:41;;;;;;;6.83;3.13;;;11.00;83.10;;;;;;5079656;28;20225;-79
2022/05/10 04:00:11;;;;;;;8.27;3.40;;;11.10;82.90;;;;;;5085423;28;20221;-78
2022/05/10 04:02:40;;;;;;;5.93;3.30;;;11.10;83.40;;;;;;5085216;28;20314;-78
2022/05/10 04:05:08;;;;;;;6.17;3.47;;;11.10;83.10;;;;;;5082908;28;20224;-79
2022/05/10 04:07:34;;;;;;;6.93;3.53;;;11.10;83.40;;;;;;5079654;28;20233;-77
2022/05/10 04:10:03;;;;;;;7.60;3.53;;;11.20;83.50;;;;;;5083398;28;20230;-78
2022/05/10 04:12:30;;;;;;;11.63;3.83;;;11.20;84.20;;;;;;5081465;28;20233;-77
2022/05/10 04:14:56;;;;;;;5.67;3.27;;;11.30;84.00;;;;;;5075464;28;20231;-77
2022/05/10 04:17:23;;;;;;;6.27;3.70;;;11.30;83.90;;;;;;5082323;28;20238;-77
2022/05/10 04:19:50;;;;;;;5.07;3.33;;;11.40;84.00;;;;;;5079866;28;20230;-77
2022/05/10 04:22:17;;;;;;;7.03;3.50;;;11.40;84.00;;;;;;5080214;28;20465;-77
2022/05/10 04:24:44;;;;;;;6.90;3.33;;;11.50;84.40;;;;;;5079351;28;20226;-78
2022/05/10 04:27:11;;;;;;;7.33;4.00;;;11.50;84.10;;;;;;5083616;28;20590;-77
2022/05/10 04:29:38;;;;;;;8.87;3.87;;;11.60;84.20;;;;;;5085370;28;20878;-79
2022/05/10 04:32:06;;;;;;;7.33;3.77;;;11.60;84.30;;;;;;5082655;28;20385;-76
2022/05/10 04:34:34;;;;;;;6.43;3.77;;;11.70;84.40;;;;;;5074612;28;20231;-77
2022/05/10 04:37:01;;;;;;;7.57;3.73;;;11.70;84.70;;;;;;5080044;28;20213;-78
2022/05/10 04:41:24;;;;;;;8.03;3.60;;;11.80;84.60;;;;;;5076324;28;20223;-75
2022/05/10 04:42:16;;;;;;;9.97;4.37;;;11.80;84.80;;;;;;5078602;28;20788;-77
2022/05/10 04:44:42;;;;;;;7.13;3.83;;;11.90;84.90;;;;;;5076454;28;20232;-76
2022/05/10 04:47:09;;;;;;;7.13;3.20;;;12.00;84.80;;;;;;5081113;28;20240;-77
2022/05/10 04:49:37;;;;;;;5.43;3.30;;;12.00;85.00;;;;;;5083832;28;20230;-80
2022/05/10 04:52:04;;;;;;;5.03;3.50;;;12.10;85.30;;;;;;5084432;28;20687;-80
2022/05/10 04:54:31;;;;;;;6.63;3.93;;;12.20;85.30;;;;;;5082751;28;20231;-80
2022/05/10 04:56:58;;;;;;;6.67;3.87;;;12.30;84.90;;;;;;5077216;28;20559;-80
2022/05/10 04:59:26;;;;;;;8.27;3.83;;;12.40;85.20;;;;;;5081148;28;20215;-80
2022/05/10 05:01:52;;;;;;;7.27;3.60;;;12.50;85.20;;;;;;5081419;28;20226;-80
2022/05/10 05:04:20;;;;;;;8.37;3.97;;;12.60;85.20;;;;;;5081982;28;21147;-82
2022/05/10 05:06:50;;;;;;;6.73;3.60;;;12.70;85.40;;;;;;5084252;28;20237;-82
2022/05/10 05:09:17;;;;;;;6.83;3.67;;;12.70;85.40;;;;;;5087881;28;20632;-80
2022/05/10 05:11:44;;;;;;;8.73;3.50;;;12.80;85.40;;;;;;5085908;28;20225;-81
2022/05/10 05:14:11;;;;;;;8.47;3.70;;;12.90;85.50;;;;;;5086601;28;21181;-81
2022/05/10 05:16:39;;;;;;;9.93;3.30;;;13.00;85.40;;;;;;5081034;28;20225;-81
2022/05/10 05:19:06;;;;;;;6.30;3.53;;;13.00;85.30;;;;;;5082544;28;20221;-81
2022/05/10 05:21:33;;;;;;;6.30;3.30;;;13.10;85.30;;;;;;5101315;28;20225;-81
2022/05/10 05:24:00;;;;;;;5.30;3.30;;;13.10;85.30;;;;;;5081977;28;20222;-82
2022/05/10 05:26:26;;;;;;;7.17;3.77;;;13.20;85.30;;;;;;5083064;28;20222;-81
2022/05/10 05:28:53;;;;;;;6.30;3.70;;;13.30;85.30;;;;;;5083926;28;20229;-81
2022/05/10 05:31:21;;;;;;;6.63;3.30;;;13.40;85.30;;;;;;5080100;28;20984;-82
2022/05/10 05:33:49;;;;;;;6.70;3.80;;;13.40;85.10;;;;;;5083908;28;20221;-81
2022/05/10 05:36:16;;;;;;;7.43;3.67;;;13.50;85.80;;;;;;5089586;28;20226;-82
2022/05/10 05:38:44;;;;;;;5.13;3.63;;;13.60;85.00;;;;;;5089392;28;20223;-82
2022/05/10 05:41:11;;;;;;;5.80;3.20;;;13.70;84.70;;;;;;5089354;28;20846;-82
2022/05/10 05:43:38;;;;;;;10.67;3.80;;;13.70;84.70;;;;;;5093013;28;20312;-82
2022/05/10 05:46:05;;;;;;;6.37;3.30;;;13.80;84.80;;;;;;5088518;28;20226;-83
2022/05/10 05:48:32;;;;;;;4.47;3.07;;;13.90;85.10;;;;;;5084736;28;20666;-81
2022/05/10 05:51:00;;;;;;;5.57;3.17;;;13.90;84.70;;;;;;5084680;28;20221;-80
2022/05/10 05:53:27;;;;;;;7.70;3.57;;;14.00;84.40;;;;;;5087060;28;20753;-81
2022/05/10 05:55:59;;;;;;;8.53;3.67;;;14.00;84.60;;;;;;5084364;28;20226;-81
2022/05/10 05:58:26;;;;;;;6.30;3.60;;;14.00;84.10;;;;;;5083903;28;20219;-81
2022/05/10 06:00:53;;;;;;;7.03;3.30;;;14.10;85.00;;;;;;5086401;28;20222;-81
2022/05/10 06:03:19;;;;;;;7.63;3.53;;;14.10;83.90;;;;;;5083301;28;20244;-81
2022/05/10 06:05:49;;;;;;;4.70;3.43;;;14.20;84.00;;;;;;5086576;28;20229;-80
2022/05/10 06:08:19;;;;;;;5.90;3.70;;;14.20;84.20;;;;;;5087648;28;20714;-81
2022/05/10 06:10:50;;;;;;;6.10;3.23;;;14.30;84.30;;;;;;5087743;28;20222;-81
2022/05/10 06:13:20;;;;;;;7.67;3.70;;;14.40;84.30;;;;;;5084958;28;20275;-81
2022/05/10 06:15:47;;;;;;;6.33;3.83;;;14.50;84.10;;;;;;5088032;28;20226;-81
2022/05/10 06:18:15;;;;;;;5.47;3.63;;;14.50;84.10;;;;;;5085072;28;20222;-81
2022/05/10 06:20:42;;;;;;;9.63;3.83;;;14.60;84.10;;;;;;5080373;28;20794;-81
2022/05/10 06:23:09;;;;;;;9.13;3.60;;;14.70;83.80;;;;;;5087262;28;20218;-81
2022/05/10 06:25:37;;;;;;;5.90;3.60;;;14.80;83.70;;;;;;5083560;28;20237;-80
2022/05/10 06:28:05;;;;;;;5.03;3.50;;;14.90;83.70;;;;;;5082981;28;20215;-81
2022/05/10 06:30:32;;;;;;;7.87;3.40;;;15.00;83.50;;;;;;5080334;28;20262;-81
2022/05/10 06:33:00;;;;;;;5.53;3.40;;;15.10;83.40;;;;;;5082958;28;20210;-81
2022/05/10 06:35:28;;;;;;;6.73;3.57;;;15.20;83.60;;;;;;5081780;28;20995;-81
2022/05/10 06:40:43;;;;;;;8.37;3.90;;;15.50;82.70;;;;;;5079471;28;20210;-81
2022/05/10 06:43:10;;;;;;;9.17;3.63;;;15.60;82.50;;;;;;5079163;28;20226;-81
2022/05/10 06:45:37;;;;;;;7.13;4.13;;;15.80;83.20;;;;;;5080712;28;20219;-81
2022/05/10 06:48:06;;;;;;;7.73;3.77;;;16.00;82.10;;;;;;5086078;28;20215;-81
2022/05/10 06:50:33;;;;;;;6.03;3.80;;;16.10;81.80;;;;;;5080557;28;20560;-81
2022/05/10 06:53:00;;;;;;;6.43;3.60;;;16.30;81.00;;;;;;5079913;28;20264;-81
2022/05/10 06:55:28;;;;;;;5.00;3.30;;;16.40;81.10;;;;;;5076307;28;20231;-80
2022/05/10 06:57:56;;;;;;;7.53;3.90;;;16.60;81.60;;;;;;5082808;28;20242;-81
2022/05/10 07:00:23;;;;;;;4.93;3.45;;;16.80;80.60;;;;;;5076308;28;20739;-81
2022/05/10 07:02:50;;;;;;;5.93;3.27;;;17.00;80.20;;;;;;5082715;28;20227;-80
2022/05/10 07:05:18;;;;;;;7.85;4.03;;;17.20;79.40;;;;;;5073403;28;20223;-81
2022/05/10 07:07:45;;;;;;;4.72;3.50;;;17.40;78.40;;;;;;5084203;28;20227;-81
2022/05/10 07:10:16;;;;;;;6.75;3.65;;;17.60;77.70;;;;;;5079810;28;20238;-81
2022/05/10 07:12:44;;;;;;;7.55;3.63;;;17.80;77.40;;;;;;5077052;28;20234;-81
2022/05/10 07:15:16;;;;;;;6.93;3.40;;;18.00;77.60;;;;;;5083529;28;20217;-83
2022/05/10 07:17:49;;;;;;;7.80;3.50;;;18.30;76.90;;;;;;5082256;28;20527;-81
2022/05/10 07:20:17;;;;;;;6.00;3.78;;;18.50;76.90;;;;;;5076720;28;20687;-81
2022/05/10 07:22:44;;;;;;;7.28;3.83;;;18.70;76.30;;;;;;5073283;28;20224;-81
2022/05/10 07:25:14;;;;;;;7.78;3.90;;;19.00;75.30;;;;;;5080867;28;20788;-81
2022/05/10 07:27:41;;;;;;;10.20;3.85;;;19.10;74.60;;;;;;5083409;28;20229;-82
2022/05/10 07:30:09;;;;;;;6.15;3.88;;;19.40;74.00;;;;;;5082835;28;20229;-81
2022/05/10 07:32:37;;;;;;;6.28;3.42;;;19.40;72.60;;;;;;5077420;28;20277;-81
2022/05/10 07:35:05;;;;;;;6.15;3.58;;;19.60;72.80;;;;;;5083495;28;20237;-81
2022/05/10 07:37:33;;;;;;;8.07;3.20;;;19.80;72.70;;;;;;5083602;28;20231;-82
2022/05/10 07:40:01;;;;;;;7.05;3.67;;;20.20;73.20;;;;;;5086077;28;20222;-81
2022/05/10 07:42:30;;;;;;;6.60;3.60;;;20.50;72.20;;;;;;5077094;28;20238;-81
2022/05/10 07:44:56;;;;;;;9.10;3.47;;;21.00;71.10;;;;;;5081229;28;20954;-81
2022/05/10 07:47:23;;;;;;;7.40;4.05;;;21.30;70.10;;;;;;5080335;28;20231;-81
2022/05/10 07:49:51;;;;;;;6.82;3.90;;;21.60;68.40;;;;;;5085177;28;20279;-81
2022/05/10 07:52:18;;;;;;;7.50;3.83;;;21.80;67.10;;;;;;5083746;28;20586;-82
2022/05/10 07:54:45;;;;;;;6.40;3.75;;;21.90;67.00;;;;;;5083874;28;20256;-81
2022/05/10 07:57:12;;;;;;;10.25;4.05;;;21.90;67.40;;;;;;5076252;28;20221;-81
2022/05/10 07:59:38;;;;;;;8.20;3.63;;;21.90;67.10;;;;;;5085471;28;20222;-81
2022/05/10 08:02:06;;;;;;;6.45;3.67;;;22.00;67.60;;;;;;5079898;28;20618;-81
2022/05/10 08:04:33;;;;;;;6.35;3.15;;;22.00;67.00;;;;;;5075772;28;20313;-82
2022/05/10 08:07:04;;;;;;;9.98;4.15;;;22.00;67.50;;;;;;5084141;28;20228;-82
2022/05/10 08:09:32;;;;;;;8.43;3.70;;;22.10;66.80;;;;;;5078676;28;20441;-81
2022/05/10 08:11:58;;;;;;;6.28;3.55;;;22.20;66.90;;;;;;5072853;28;20211;-82
2022/05/10 08:14:25;;;;;;;6.55;3.70;;;22.30;66.80;;;;;;5081269;28;20233;-82
2022/05/10 08:16:52;;;;;;;6.88;3.80;;;22.30;66.40;;;;;;5082972;28;20222;-82
2022/05/10 08:19:19;;;;;;;4.55;3.83;;;22.40;66.70;;;;;;5080053;28;20230;-82
2022/05/10 08:21:46;;;;;;;4.45;3.55;;;22.50;66.60;;;;;;5078937;28;20214;-82
2022/05/10 08:24:14;;;;;;;8.50;3.92;;;22.60;66.70;;;;;;5081654;28;20286;-82
2022/05/10 08:26:40;;;;;;;7.63;3.75;;;22.70;66.80;;;;;;5080227;28;20305;-81
2022/05/10 08:29:07;;;;;;;8.10;4.00;;;22.80;66.90;;;;;;5081559;28;20770;-81
2022/05/10 08:31:34;;;;;;;5.30;3.90;;;22.80;66.70;;;;;;5047872;28;1036516;-81
2022/05/10 08:34:04;;;;;;;5.47;3.83;;;22.90;66.10;;;;;;5083603;28;20723;-82
2022/05/10 08:36:31;;;;;;;5.20;3.83;;;22.90;66.10;;;;;;5085433;28;20486;-82
2022/05/10 08:38:58;;;;;;;10.65;3.85;;;23.00;66.60;;;;;;5084468;28;20566;-81
2022/05/10 08:41:29;;;;;;;7.05;3.67;;;23.00;66.70;;;;;;5080847;28;20219;-81
2022/05/10 08:44:00;;;;;;;5.18;3.50;;;23.00;66.90;;;;;;5083974;28;20221;-82
2022/05/10 08:46:32;;;;;;;7.25;3.38;;;23.10;66.70;;;;;;5081819;28;20260;-81
2022/05/10 08:49:05;;;;;;;6.57;3.83;;;23.30;67.40;;;;;;5078350;28;20250;-82
2022/05/10 08:51:33;;;;;;;5.65;3.70;;;23.60;66.70;;;;;;5078864;28;20270;-81
2022/05/10 08:54:00;;;;;;;6.47;3.65;;;23.90;65.40;;;;;;5078424;28;20222;-82
2022/05/10 08:56:31;;;;;;;5.95;3.72;;;24.10;65.50;;;;;;5082688;28;20800;-82
2022/05/10 08:59:17;;;;;;;5.07;3.33;;;24.30;64.70;;;;;;5093566;28;20219;-81
2022/05/10 09:01:58;;;;;;;10.85;3.60;;;24.40;64.20;;;;;;5077252;28;20222;-82
2022/05/10 09:04:47;;;;;;;7.95;3.70;;;24.50;63.10;;;;;;5082154;28;20318;-82
2022/05/10 09:07:26;;;;;;;6.00;3.75;;;24.50;63.00;;;;;;5080862;28;20248;-82
2022/05/10 09:10:00;;;;;;;8.13;3.45;;;24.50;62.70;;;;;;5080381;28;20257;-82
2022/05/10 09:12:30;;;;;;;7.30;3.63;;;24.50;62.40;;;;;;5077994;28;20758;-82
2022/05/10 09:14:58;;;;;;;5.90;3.88;;;24.50;63.10;;;;;;5081798;28;20635;-82
2022/05/10 09:17:29;;;;;;;4.35;3.72;;;24.60;63.60;;;;;;5082624;28;20237;-81
2022/05/10 09:19:56;;;;;;;6.57;3.70;;;24.70;62.80;;;;;;5086545;28;20244;-81
2022/05/10 09:22:38;;;;;;;6.05;3.72;;;24.90;61.80;;;;;;5077721;28;20215;-81
2022/05/10 09:25:16;;;;;;;7.93;3.58;;;25.20;62.00;;;;;;5076620;28;20222;-81
2022/05/10 09:27:45;;;;;;;6.28;3.95;;;25.60;61.20;;;;;;5081766;28;20721;-81
2022/05/10 09:30:25;;;;;;;6.65;3.00;;;25.90;61.20;;;;;;5084780;28;20226;-81
2022/05/10 09:35:50;;;;;;;7.30;3.80;;;26.70;60.40;;;;;;5080917;28;20297;-83
2022/05/10 09:38:19;;;;;;;5.80;3.72;;;27.10;57.90;;;;;;5083323;28;20226;-82
2022/05/10 09:40:48;;;;;;;8.20;3.97;;;27.40;57.90;;;;;;5088029;28;20215;-82
2022/05/10 09:43:25;;;;;;;5.85;3.65;;;27.50;57.50;;;;;;5084101;28;20599;-83
2022/05/10 09:46:08;;;;;;;5.78;3.35;;;27.70;56.90;;;;;;5086717;28;20245;-81
2022/05/10 09:48:35;;;;;;;6.95;3.45;;;27.80;56.30;;;;;;5085069;28;20211;-81
2022/05/10 09:51:20;;;;;;;7.50;3.50;;;27.90;55.60;;;;;;5086955;28;20230;-82
2022/05/10 09:53:47;;;;;;;6.32;3.17;;;27.90;55.50;;;;;;5084615;28;20229;-82
2022/05/10 09:56:29;;;;;;;8.48;2.80;;;28.00;55.40;;;;;;5076883;28;20248;-81
2022/05/10 09:58:59;;;;;;;6.57;3.55;;;28.20;55.10;;;;;;5081297;28;20560;-81
2022/05/10 10:01:38;;;;;;;6.93;2.88;;;28.40;53.80;;;;;;5087668;28;20218;-82
2022/05/10 10:04:20;;;;;;;8.77;2.85;;;28.50;53.00;;;;;;5075690;28;20226;-82
2022/05/10 10:07:03;;;;;;;4.88;2.55;;;28.80;51.70;;;;;;5085101;28;20764;-82
2022/05/10 10:09:31;;;;;;;5.60;2.67;;;29.00;50.90;;;;;;5085402;28;20299;-82
2022/05/10 10:11:59;;;;;;;6.22;2.70;;;29.20;50.00;;;;;;5086048;28;20228;-82
2022/05/10 10:14:39;;;;;;;7.72;2.80;;;29.30;49.90;;;;;;5083993;28;20222;-81
2022/05/10 10:17:08;;;;;;;6.50;2.88;;;29.50;48.60;;;;;;5084018;28;20229;-82
2022/05/10 10:19:41;;;;;;;7.10;2.75;;;29.60;49.50;;;;;;5084687;28;20222;-82
2022/05/10 10:22:13;;;;;;;5.68;2.35;;;29.70;48.80;;;;;;5079637;28;20225;-81
2022/05/10 10:24:47;;;;;;;5.30;2.60;;;29.90;48.00;;;;;;5072455;28;20225;-83
2022/05/10 10:27:18;;;;;;;2.70;2.17;;;30.00;48.00;;;;;;5083252;28;20226;-82
2022/05/10 10:29:50;;;;;;;3.90;2.47;;;30.00;48.00;;;;;;5076343;28;20226;-81
2022/05/10 10:32:21;;;;;;;4.72;2.45;;;30.10;48.10;;;;;;5083013;28;20247;-83
2022/05/10 10:34:52;;;;;;;4.07;2.55;;;30.10;48.40;;;;;;5077787;28;20223;-81
2022/05/10 10:37:24;;;;;;;7.53;2.72;;;30.10;47.60;;;;;;5083019;28;21053;-82
2022/05/10 10:39:58;;;;;;;4.00;2.17;;;30.20;47.40;;;;;;5081404;28;20715;-82
2022/05/10 10:42:32;;;;;;;5.57;2.72;;;30.30;47.40;;;;;;5084669;28;20750;-82
2022/05/10 10:45:02;;;;;;;2.80;2.25;;;30.30;46.20;;;;;;5075251;28;20219;-82
2022/05/10 10:47:36;;;;;;;5.60;2.40;;;30.30;45.50;;;;;;5075347;28;20239;-83
2022/05/10 10:50:14;;;;;;;6.90;2.72;;;30.10;46.20;;;;;;5081913;28;20649;-82
2022/05/10 10:52:41;;;;;;;4.72;2.42;;;30.00;46.20;;;;;;5081842;28;20225;-82
2022/05/10 10:55:09;;;;;;;4.43;2.67;;;29.90;46.40;;;;;;5074882;28;20302;-82
2022/05/10 10:57:49;;;;;;;6.22;2.78;;;29.80;46.40;;;;;;5078173;28;20243;-82
2022/05/10 11:00:19;;;;;;;6.78;2.15;;;29.80;46.50;;;;;;5084898;28;20223;-82
2022/05/10 11:03:09;;;;;;;10.88;2.92;;;29.90;46.50;;;;;;5083751;28;20249;-82
2022/05/10 11:05:52;;;;;;;5.68;2.45;;;30.00;46.60;;;;;;5084665;28;20214;-82
2022/05/10 11:08:34;;;;;;;4.47;2.33;;;30.10;46.20;;;;;;5079460;28;20287;-81
2022/05/10 11:11:10;;;;;;;12.82;2.90;;;30.10;46.00;;;;;;5082868;28;20296;-82
2022/05/10 11:13:53;;;;;;;4.35;2.10;;;30.20;45.60;;;;;;5081610;28;20226;-82
2022/05/10 11:16:42;;;;;;;4.30;2.38;;;30.20;45.10;;;;;;5077303;28;20216;-84
2022/05/10 11:19:35;;;;;;;5.15;2.30;;;30.20;45.60;;;;;;5083669;28;20285;-82
2022/05/10 11:22:10;;;;;;;4.70;3.00;;;30.20;44.60;;;;;;5082371;28;20240;-82
2022/05/10 11:24:50;;;;;;;5.20;2.50;;;30.10;44.90;;;;;;5074850;28;20218;-82
2022/05/10 11:27:37;;;;;;;5.43;2.10;;;30.20;45.30;;;;;;5075020;28;20230;-82
2022/05/10 11:30:09;;;;;;;4.18;2.45;;;30.10;45.30;;;;;;5072677;28;20230;-82
2022/05/10 11:33:00;;;;;;;6.50;2.58;;;30.10;44.70;;;;;;5082171;28;20242;-82
2022/05/10 11:35:51;;;;;;;5.07;2.30;;;30.00;44.00;;;;;;5083676;28;20726;-82
2022/05/10 11:38:34;;;;;;;3.65;1.90;;;30.10;44.30;;;;;;5081406;28;20223;-82
2022/05/10 11:41:10;;;;;;;4.35;2.15;;;30.10;43.20;;;;;;5079620;28;20230;-82
2022/05/10 11:44:08;;;;;;;6.03;2.40;;;30.20;43.70;;;;;;5084033;28;20220;-81
2022/05/10 11:46:55;;;;;;;4.95;2.10;;;30.20;43.60;;;;;;5037358;28;20231;-82
2022/05/10 11:49:49;;;;;;;4.55;2.30;;;30.10;42.70;;;;;;5080142;28;20250;-82
2022/05/10 11:52:39;;;;;;;6.70;1.90;;;30.10;43.30;;;;;;5081217;28;20222;-82
2022/05/10 11:55:23;;;;;;;3.25;2.17;;;30.00;43.10;;;;;;5064987;28;20720;-83
2022/05/10 11:57:54;;;;;;;5.72;2.10;;;29.80;42.60;;;;;;5078608;28;20222;-83
2022/05/10 12:00:50;;;;;;;3.67;2.30;;;29.70;42.70;;;;;;5080935;28;20241;-82
2022/05/10 12:04:01;;;;;;;3.95;2.05;;;29.50;43.60;;;;;;5079183;28;20318;-82
2022/05/10 12:06:42;;;;;;;5.95;2.00;;;29.50;43.00;;;;;;5076941;28;20264;-82
2022/05/10 12:09:14;;;;;;;3.45;2.15;;;29.50;42.40;;;;;;5094213;28;20240;-82
2022/05/10 12:11:45;;;;;;;8.52;2.58;;;29.50;42.60;;;;;;5079688;28;20955;-83
2022/05/10 12:24:01;;;;;;;4.20;2.10;;;29.70;42.30;;;;;;5077918;28;20253;-81
2022/05/10 12:26:46;;;;;;;6.15;2.83;;;29.60;42.30;;;;;;5081285;28;20313;-82
2022/05/10 12:29:34;;;;;;;6.40;2.70;;;29.40;42.90;;;;;;5080041;28;20787;-83
2022/05/10 12:32:05;;;;;;;2.72;2.30;;;29.30;43.00;;;;;;5080658;28;20211;-82
2022/05/10 12:34:45;;;;;;;4.85;2.58;;;29.20;42.90;;;;;;5072001;28;20229;-82
2022/05/10 12:37:38;;;;;;;3.17;2.50;;;29.10;43.00;;;;;;5077223;28;20214;-82
2022/05/10 12:40:17;;;;;;;5.50;2.80;;;29.00;43.30;;;;;;5078709;28;20226;-83
2022/05/10 12:42:58;;;;;;;5.60;2.78;;;28.80;43.10;;;;;;5080979;28;20222;-82
2022/05/10 12:45:33;;;;;;;4.57;3.03;;;28.70;44.00;;;;;;5080215;28;20229;-84
2022/05/10 12:48:06;;;;;;;5.38;2.78;;;28.60;44.40;;;;;;5081271;28;20599;-83
2022/05/10 12:50:47;;;;;;;8.57;2.72;;;28.60;44.80;;;;;;5074969;28;20707;-87
2022/05/10 12:53:24;;;;;;;4.35;2.95;;;28.60;44.30;;;;;;5085080;28;20221;-82
2022/05/10 12:55:52;;;;;;;5.65;2.75;;;28.60;44.30;;;;;;5084187;28;20798;-82
2022/05/10 12:58:25;;;;;;;4.53;3.00;;;28.50;44.60;;;;;;5078424;28;20600;-81
2022/05/10 13:00:55;;;;;;;6.68;3.15;;;28.40;44.80;;;;;;5085724;28;20230;-82
2022/05/10 13:03:25;;;;;;;8.38;3.28;;;28.30;44.60;;;;;;5081800;28;20229;-82
2022/05/10 13:06:03;;;;;;;9.15;3.95;;;28.10;45.10;;;;;;5084835;28;20226;-82
2022/05/10 13:08:56;;;;;;;14.13;3.90;;;28.00;45.20;;;;;;5086979;28;20230;-81
2022/05/10 13:11:26;;;;;;;5.57;2.90;;;27.70;45.90;;;;;;5090303;28;20288;-82
2022/05/10 13:13:55;;;;;;;6.43;3.28;;;27.60;46.10;;;;;;5090397;28;20229;-81
2022/05/10 13:16:22;;;;;;;4.28;3.10;;;27.40;46.30;;;;;;5084753;28;20222;-82
2022/05/10 13:18:53;;;;;;;7.07;3.30;;;27.30;46.50;;;;;;5092184;28;20221;-82
2022/05/10 13:21:24;;;;;;;5.25;2.90;;;27.20;46.50;;;;;;5084571;28;20226;-82
2022/05/10 13:23:52;;;;;;;5.43;3.58;;;27.00;46.90;;;;;;5085592;28;20219;-81